Quarteles, New Mexico
Current Conditions -  °F | °C
As of 9:55 AM on Saturday 20 Dec 2014 (Local Time) from KLAM Reporting Station
Clear Clear  
Wind Chill: 30°   Ceiling: Unl
Heat Index: 30°   Visibility: 10mi
Dew Point: 19°   Wind: 0mph
Humidity: 64%   Direction: NA
Pressure: 30.15"   Gusts: NA
Location:  35.9775°N, 106.158°W
Report Text: KLAM 201655Z AUTO 00000KT 10SM CLR M01/M07 A3015 RMK AO2 T10091070
Loading
Personal Weather Stations






























Interactive Weather Map New forecast layout! Learn more

10-Day Weather Forecast

Advertisements
Track Severe Weather on mobile